createdAt,value
2018-10-17T00:01:06.403Z,92.30
2018-10-17T00:03:35.588Z,92.40
2018-10-17T00:06:04.838Z,92.40
2018-10-17T00:08:34.000Z,92.50
2018-10-17T00:11:04.420Z,92.40
2018-10-17T00:13:34.454Z,92.50
2018-10-17T00:16:03.901Z,92.20
2018-10-17T00:18:32.831Z,92.40
2018-10-17T00:21:01.448Z,92.20
2018-10-17T00:23:30.378Z,92.30
2018-10-17T00:25:59.390Z,92.30
2018-10-17T00:28:28.387Z,92.30
2018-10-17T00:30:57.427Z,92.30
2018-10-17T00:33:26.487Z,92.20
2018-10-17T00:35:55.494Z,92.20
2018-10-17T00:38:24.237Z,92.30
2018-10-17T00:40:53.007Z,92.50
2018-10-17T00:43:22.494Z,92.50
2018-10-17T00:45:51.000Z,92.60
2018-10-17T00:48:19.548Z,92.70
2018-10-17T00:50:48.147Z,92.60
2018-10-17T00:53:16.688Z,92.60
2018-10-17T00:55:45.243Z,92.60
2018-10-17T00:58:13.832Z,92.90
2018-10-17T01:00:42.358Z,92.80
2018-10-17T01:03:11.058Z,92.60
2018-10-17T01:05:39.888Z,92.70
2018-10-17T01:08:08.431Z,92.70
2018-10-17T01:10:36.879Z,92.60
2018-10-17T01:13:05.464Z,92.60
2018-10-17T01:15:33.807Z,92.70
2018-10-17T01:18:02.259Z,92.70
2018-10-17T01:20:30.694Z,92.80
2018-10-17T01:22:59.127Z,92.80
2018-10-17T01:25:27.642Z,92.80
2018-10-17T01:27:56.180Z,92.80
2018-10-17T01:30:24.623Z,92.80
2018-10-17T01:32:53.065Z,92.80
2018-10-17T01:35:21.738Z,92.70
2018-10-17T01:37:50.334Z,92.50
2018-10-17T01:40:21.084Z,92.80
2018-10-17T01:42:49.672Z,92.70
2018-10-17T01:45:18.435Z,92.60
2018-10-17T01:47:47.014Z,92.60
2018-10-17T01:50:15.608Z,92.60
2018-10-17T01:52:46.092Z,92.90
2018-10-17T01:55:14.898Z,92.80
2018-10-17T01:57:43.985Z,92.90
2018-10-17T02:00:12.914Z,92.80
2018-10-17T02:02:41.939Z,92.60
2018-10-17T02:05:10.626Z,92.90
2018-10-17T02:07:40.003Z,92.90
2018-10-17T02:10:08.706Z,92.90
2018-10-17T02:12:37.294Z,93.00
2018-10-17T02:15:06.293Z,93.10
2018-10-17T02:17:36.338Z,93.00
2018-10-17T02:20:04.874Z,93.10
2018-10-17T02:22:33.446Z,93.10
2018-10-17T02:25:01.952Z,93.10
2018-10-17T02:27:30.595Z,93.20
2018-10-17T02:29:59.260Z,93.10
2018-10-17T02:32:27.993Z,93.20
2018-10-17T02:35:01.761Z,93.30
2018-10-17T02:37:30.452Z,93.30
2018-10-17T02:39:59.136Z,93.30
2018-10-17T02:42:29.810Z,93.30
2018-10-17T02:44:58.687Z,93.20
2018-10-17T02:47:27.270Z,93.10
2018-10-17T02:49:56.269Z,93.20
2018-10-17T02:52:25.209Z,93.40
2018-10-17T02:54:59.732Z,93.40
2018-10-17T02:57:28.231Z,93.50
2018-10-17T02:59:56.753Z,93.50
2018-10-17T03:02:25.221Z,93.50
2018-10-17T03:04:53.848Z,93.40
2018-10-17T03:07:22.401Z,93.30
2018-10-17T03:09:50.957Z,93.20
2018-10-17T03:12:19.524Z,93.40
2018-10-17T03:14:48.310Z,93.50
2018-10-17T03:17:16.817Z,93.40
2018-10-17T03:19:45.458Z,93.40
2018-10-17T03:22:13.936Z,93.50
2018-10-17T03:24:42.558Z,93.60
2018-10-17T03:27:11.124Z,93.60
2018-10-17T03:29:39.597Z,93.40
2018-10-17T03:32:08.158Z,93.30
2018-10-17T03:34:36.634Z,93.30
2018-10-17T03:37:05.331Z,93.20
2018-10-17T03:39:33.797Z,93.20
2018-10-17T03:42:02.390Z,93.10
2018-10-17T03:44:30.824Z,93.20
2018-10-17T03:46:59.329Z,93.10
2018-10-17T03:49:28.012Z,93.30
2018-10-17T03:51:56.434Z,93.40
2018-10-17T03:54:24.950Z,93.40
2018-10-17T03:56:53.427Z,93.40
2018-10-17T03:59:22.055Z,93.70
2018-10-17T04:01:50.319Z,93.80
2018-10-17T04:04:18.788Z,93.70
2018-10-17T04:06:47.295Z,93.70
2018-10-17T04:09:15.764Z,93.70
2018-10-17T04:11:44.293Z,93.80
2018-10-17T04:14:12.843Z,93.70
2018-10-17T04:16:41.479Z,93.60
2018-10-17T04:19:10.070Z,93.60
2018-10-17T04:21:39.128Z,93.70
2018-10-17T04:24:10.071Z,93.60
2018-10-17T04:26:38.733Z,93.70
2018-10-17T04:29:07.743Z,93.50
2018-10-17T04:31:38.707Z,93.50
2018-10-17T04:34:07.617Z,93.60
2018-10-17T04:36:41.148Z,93.60
2018-10-17T04:39:11.251Z,93.70
2018-10-17T04:41:40.279Z,93.40
2018-10-17T04:44:10.445Z,93.50
2018-10-17T04:46:39.655Z,93.50
2018-10-17T04:49:09.763Z,93.60
2018-10-17T04:51:39.143Z,93.70
2018-10-17T04:54:08.194Z,93.70
2018-10-17T04:56:36.766Z,93.90
2018-10-17T04:59:05.754Z,94.00
2018-10-17T05:01:34.496Z,93.90
2018-10-17T05:04:04.162Z,93.90
2018-10-17T05:06:38.795Z,93.90
2018-10-17T05:09:13.391Z,94.10
2018-10-17T05:11:42.262Z,94.00
2018-10-17T05:14:11.007Z,93.90
2018-10-17T05:16:39.855Z,93.90
2018-10-17T05:19:08.899Z,94.00
2018-10-17T05:24:55.398Z,94.00
2018-10-17T05:27:24.402Z,93.80
2018-10-17T05:29:53.118Z,93.70
2018-10-17T05:32:31.571Z,94.10
2018-10-17T06:01:20.515Z,94.00
2018-10-17T06:03:56.601Z,94.30
2018-10-17T06:32:35.224Z,94.10
2018-10-17T06:35:03.765Z,94.00
2018-10-17T06:37:32.280Z,93.80
2018-10-17T06:40:22.704Z,93.90
2018-10-17T06:43:00.909Z,93.80
2018-10-17T06:45:30.101Z,93.90
2018-10-17T06:47:58.760Z,93.80
2018-10-17T06:50:27.511Z,93.40
2018-10-17T06:55:35.635Z,93.50
2018-10-17T06:58:05.471Z,93.60
2018-10-17T07:00:34.537Z,93.40
2018-10-17T07:03:03.716Z,93.60
2018-10-17T07:05:33.733Z,93.70
2018-10-17T07:08:03.821Z,93.50
2018-10-17T07:10:33.908Z,93.70
2018-10-17T07:13:03.762Z,93.50
2018-10-17T07:15:32.924Z,93.60
2018-10-17T07:18:05.894Z,93.60
2018-10-17T07:20:35.101Z,93.50
2018-10-17T07:23:05.111Z,93.40
2018-10-17T07:25:36.563Z,93.30
2018-10-17T07:48:35.825Z,93.30
2018-10-17T07:51:06.567Z,93.30
2018-10-17T07:53:35.645Z,93.30
2018-10-17T07:59:04.674Z,93.20
2018-10-17T08:01:36.843Z,93.30
2018-10-17T08:04:22.078Z,93.30
2018-10-17T08:06:53.696Z,93.20
2018-10-17T08:09:33.723Z,93.10
2018-10-17T08:12:06.153Z,93.10
2018-10-17T08:14:51.873Z,93.20
2018-10-17T08:17:34.601Z,93.50
2018-10-17T08:23:08.779Z,93.20
2018-10-17T08:25:38.843Z,93.20
2018-10-17T08:31:08.157Z,93.00
2018-10-17T08:33:36.756Z,92.90
2018-10-17T08:36:05.758Z,92.90
2018-10-17T09:03:09.429Z,92.50
2018-10-17T09:05:39.294Z,91.00
2018-10-17T09:08:11.195Z,91.00
2018-10-17T09:10:39.742Z,91.00
2018-10-17T09:13:09.412Z,91.10
2018-10-17T09:15:39.329Z,90.80
2018-10-17T09:18:09.321Z,90.60
2018-10-17T09:20:39.401Z,90.50
2018-10-17T09:23:08.982Z,90.30
2018-10-17T09:25:38.984Z,90.20
2018-10-17T09:28:09.152Z,90.20
2018-10-17T09:30:37.797Z,90.30
2018-10-17T09:33:10.357Z,90.00
2018-10-17T09:35:39.099Z,90.00
2018-10-17T09:38:09.021Z,88.80
2018-10-17T09:40:38.776Z,88.40
2018-10-17T09:43:09.364Z,87.70
2018-10-17T09:45:39.180Z,87.70
2018-10-17T09:48:12.402Z,87.70
2018-10-17T09:50:42.204Z,87.20
2018-10-17T09:53:11.243Z,87.40
2018-10-17T09:55:43.750Z,86.70
2018-10-17T09:58:12.358Z,87.30
2018-10-17T10:03:32.342Z,86.00
2018-10-17T10:06:32.526Z,86.10
2018-10-17T10:09:10.069Z,85.30
2018-10-17T10:11:39.368Z,83.70
2018-10-17T10:14:09.330Z,83.00
2018-10-17T10:16:50.989Z,82.80
2018-10-17T10:19:23.762Z,82.10
2018-10-17T10:22:01.727Z,81.90
2018-10-17T10:24:30.413Z,81.10
2018-10-17T10:27:04.405Z,80.40
2018-10-17T10:29:34.681Z,80.20
2018-10-17T10:32:08.966Z,80.80
2018-10-17T10:34:37.842Z,79.30
2018-10-17T10:37:09.484Z,79.00
2018-10-17T10:39:39.453Z,79.40
2018-10-17T10:42:08.515Z,78.00
2018-10-17T10:44:37.920Z,77.20
2018-10-17T10:47:09.043Z,76.90
2018-10-17T10:49:37.574Z,76.80
2018-10-17T10:52:06.972Z,76.10
2018-10-17T10:54:39.519Z,76.80
2018-10-17T10:57:08.561Z,76.50
2018-10-17T10:59:40.614Z,74.10
2018-10-17T11:02:09.569Z,74.30
2018-10-17T11:04:38.646Z,73.70
2018-10-17T11:07:09.575Z,73.00
2018-10-17T11:09:38.585Z,72.30
2018-10-17T11:12:09.827Z,72.30
2018-10-17T11:14:38.808Z,71.20
2018-10-17T11:17:09.725Z,70.50
2018-10-17T11:19:38.639Z,70.70
2018-10-17T11:22:10.654Z,70.10
2018-10-17T11:24:39.694Z,70.70
2018-10-17T11:27:08.723Z,71.20
2018-10-17T11:29:37.724Z,70.50
2018-10-17T11:32:10.671Z,70.50
2018-10-17T11:34:39.712Z,69.60
2018-10-17T11:37:09.738Z,69.70
2018-10-17T11:39:38.735Z,70.50
2018-10-17T11:42:07.767Z,69.40
2018-10-17T11:44:36.782Z,70.00
2018-10-17T11:47:06.303Z,69.20
2018-10-17T11:49:38.933Z,68.20
2018-10-17T11:52:16.813Z,68.10
2018-10-17T11:54:49.303Z,66.90
2018-10-17T11:57:18.941Z,66.90
2018-10-17T11:59:49.937Z,66.50
2018-10-17T12:02:19.868Z,67.20
2018-10-17T12:04:56.148Z,67.70
2018-10-17T12:07:24.874Z,67.00
2018-10-17T12:10:05.400Z,67.40
2018-10-17T12:12:33.974Z,66.70
2018-10-17T12:15:02.605Z,66.30
2018-10-17T12:17:31.136Z,66.40
2018-10-17T12:20:08.719Z,66.50
2018-10-17T12:22:38.724Z,66.00
2018-10-17T12:25:08.649Z,66.00
2018-10-17T12:27:38.004Z,66.70
2018-10-17T12:30:08.088Z,68.10
2018-10-17T12:32:45.812Z,67.90
2018-10-17T12:35:19.181Z,68.40
2018-10-17T12:37:55.703Z,69.10
2018-10-17T12:40:28.545Z,69.30
2018-10-17T12:42:58.551Z,69.90
2018-10-17T12:45:28.998Z,70.70
2018-10-17T12:47:58.856Z,70.80
2018-10-17T12:50:29.405Z,71.40
2018-10-17T12:52:59.054Z,71.60
2018-10-17T12:55:30.541Z,70.90
2018-10-17T12:58:08.105Z,70.70
2018-10-17T13:03:22.594Z,71.00
2018-10-17T13:05:51.146Z,71.30
2018-10-17T13:08:20.471Z,71.00
2018-10-17T13:10:48.989Z,71.10
2018-10-17T13:13:21.144Z,71.30
2018-10-17T13:15:49.685Z,70.70
2018-10-17T13:18:18.234Z,70.60
2018-10-17T13:20:47.790Z,71.10
2018-10-17T13:23:17.570Z,71.20
2018-10-17T13:25:46.161Z,71.40
2018-10-17T13:28:21.269Z,72.00
2018-10-17T13:30:52.421Z,72.80
2018-10-17T13:33:21.782Z,73.10
2018-10-17T13:35:50.425Z,73.40
2018-10-17T13:38:20.045Z,73.70
2018-10-17T13:40:51.570Z,73.60
2018-10-17T13:43:20.407Z,73.80
2018-10-17T13:45:51.397Z,73.90
2018-10-17T13:48:20.517Z,73.70
2018-10-17T13:50:49.385Z,74.00
2018-10-17T13:53:18.895Z,74.40
2018-10-17T13:55:47.485Z,74.00
2018-10-17T13:58:16.520Z,74.00
2018-10-17T14:00:45.476Z,74.50
2018-10-17T14:03:14.198Z,74.90
2018-10-17T14:05:43.434Z,75.70
2018-10-17T14:08:11.918Z,76.30
2018-10-17T14:10:40.603Z,76.30
2018-10-17T14:13:09.165Z,76.30
2018-10-17T14:15:37.735Z,76.20
2018-10-17T14:18:06.667Z,76.70
2018-10-17T14:20:35.574Z,77.20
2018-10-17T14:23:04.545Z,77.20
2018-10-17T14:25:33.562Z,77.70
2018-10-17T14:28:02.529Z,78.10
2018-10-17T14:30:31.593Z,78.50
2018-10-17T14:33:00.608Z,78.60
2018-10-17T14:35:29.611Z,78.40
2018-10-17T14:37:58.661Z,78.70
2018-10-17T14:40:27.633Z,78.90
2018-10-17T14:42:58.138Z,79.20
2018-10-17T14:45:26.783Z,79.90
2018-10-17T14:47:55.254Z,78.90
2018-10-17T14:50:37.691Z,79.50
2018-10-17T14:53:06.943Z,79.50
2018-10-17T14:55:45.632Z,79.40
2018-10-17T14:58:20.250Z,79.60
2018-10-17T15:01:07.978Z,80.40
2018-10-17T15:03:47.356Z,79.80
2018-10-17T15:06:18.113Z,79.90
2018-10-17T15:08:50.541Z,80.20
2018-10-17T15:11:19.577Z,80.60
2018-10-17T15:13:48.296Z,80.60
2018-10-17T15:16:17.850Z,80.80
2018-10-17T15:18:51.991Z,80.90
2018-10-17T15:21:22.077Z,81.30
2018-10-17T15:23:57.133Z,81.40
2018-10-17T15:26:28.602Z,81.50
2018-10-17T15:28:57.201Z,81.50
2018-10-17T15:31:25.740Z,81.50
2018-10-17T15:33:55.801Z,81.60
2018-10-17T15:36:28.590Z,81.80
2018-10-17T15:38:59.350Z,81.80
2018-10-17T15:41:27.997Z,82.00
2018-10-17T15:43:57.080Z,82.20
2018-10-17T15:46:27.012Z,82.20
2018-10-17T15:48:57.417Z,82.30
2018-10-17T15:51:26.094Z,82.50
2018-10-17T15:53:55.134Z,82.80
2018-10-17T15:56:24.017Z,83.00
2018-10-17T15:58:53.027Z,83.20
2018-10-17T16:01:22.825Z,83.40
2018-10-17T16:03:51.841Z,83.50
2018-10-17T16:06:22.392Z,84.50
2018-10-17T16:08:51.194Z,83.90
2018-10-17T16:11:26.813Z,84.10
2018-10-17T16:13:56.756Z,84.50
2018-10-17T16:16:25.282Z,84.60
2018-10-17T16:18:53.918Z,84.50
2018-10-17T16:21:22.321Z,84.80
2018-10-17T16:23:51.029Z,85.00
2018-10-17T16:26:20.193Z,85.40
2018-10-17T16:28:49.204Z,85.60
2018-10-17T16:31:20.233Z,86.90
2018-10-17T16:33:49.201Z,87.40
2018-10-17T16:36:18.259Z,88.10
2018-10-17T16:38:47.234Z,87.90
2018-10-17T16:41:16.255Z,88.40
2018-10-17T16:43:45.250Z,88.70
2018-10-17T16:46:14.253Z,88.70
2018-10-17T16:48:43.269Z,89.00
2018-10-17T16:51:12.278Z,89.00
2018-10-17T16:53:41.290Z,89.20
2018-10-17T16:56:10.296Z,89.10
2018-10-17T16:58:39.411Z,89.40
2018-10-17T17:01:08.322Z,89.00
2018-10-17T17:03:37.335Z,89.60
2018-10-17T17:06:19.845Z,89.30
2018-10-17T17:08:48.384Z,89.40
2018-10-17T17:11:17.371Z,89.30
2018-10-17T17:13:46.322Z,89.30
2018-10-17T17:16:14.881Z,89.70
2018-10-17T17:18:43.563Z,89.20
2018-10-17T17:21:18.743Z,89.50
2018-10-17T17:23:47.464Z,89.20
2018-10-17T17:26:22.030Z,89.00
2018-10-17T17:28:50.915Z,89.00
2018-10-17T17:31:19.918Z,88.50
2018-10-17T17:33:48.535Z,88.30
2018-10-17T17:36:18.504Z,87.80
2018-10-17T17:38:47.586Z,87.40
2018-10-17T17:41:21.185Z,87.30
2018-10-17T17:43:50.015Z,86.90
2018-10-17T17:46:20.040Z,86.10
2018-10-17T17:48:50.036Z,86.10
2018-10-17T17:51:19.586Z,85.70
2018-10-17T17:53:49.604Z,85.70
2018-10-17T17:56:18.557Z,85.40
2018-10-17T17:58:49.105Z,85.50
2018-10-17T18:01:19.130Z,84.70
2018-10-17T18:03:48.733Z,85.00
2018-10-17T18:06:18.251Z,84.90
2018-10-17T18:08:46.741Z,84.70
2018-10-17T18:11:26.680Z,84.50
2018-10-17T18:13:57.087Z,84.90
2018-10-17T18:16:25.858Z,84.80
2018-10-17T18:18:55.689Z,84.50
2018-10-17T18:21:30.715Z,84.50
2018-10-17T18:24:02.879Z,84.70
2018-10-17T18:26:32.130Z,83.80
2018-10-17T18:29:12.800Z,84.50
2018-10-17T18:45:42.748Z,84.20
2018-10-17T18:48:12.292Z,84.70
2018-10-17T18:50:41.681Z,85.00
2018-10-17T18:53:10.516Z,84.90
2018-10-17T18:55:39.047Z,84.90
2018-10-17T18:58:07.524Z,85.20
2018-10-17T19:00:36.318Z,85.10
2018-10-17T19:03:04.884Z,85.10
2018-10-17T19:05:33.850Z,84.90
2018-10-17T19:08:09.542Z,85.40
2018-10-17T19:10:38.026Z,85.50
2018-10-17T19:13:06.929Z,85.50
2018-10-17T19:15:35.906Z,85.60
2018-10-17T19:18:04.914Z,85.60
2018-10-17T19:23:10.022Z,85.90
2018-10-17T19:25:44.938Z,85.80
2018-10-17T19:28:14.007Z,85.80
2018-10-17T19:30:42.977Z,86.00
2018-10-17T19:33:12.165Z,86.00
2018-10-17T19:35:51.118Z,86.10
2018-10-17T19:38:25.681Z,86.20
2018-10-17T19:40:54.585Z,86.20
2018-10-17T19:43:23.084Z,86.10
2018-10-17T19:45:51.562Z,86.20
2018-10-17T19:48:30.184Z,86.30
2018-10-17T19:53:55.608Z,86.40
2018-10-17T19:56:24.124Z,86.20
2018-10-17T20:04:48.712Z,86.10
2018-10-17T20:07:17.277Z,86.50
2018-10-17T20:09:45.912Z,87.20
2018-10-17T20:12:14.452Z,87.50
2018-10-17T20:14:42.975Z,88.90
2018-10-17T20:17:11.543Z,89.00
2018-10-17T20:19:43.420Z,89.50
2018-10-17T20:22:25.985Z,89.70
2018-10-17T20:24:54.432Z,90.10
2018-10-17T20:27:23.071Z,90.20
2018-10-17T20:29:53.665Z,90.50
2018-10-17T20:32:22.265Z,90.50
2018-10-17T20:34:56.430Z,90.70
2018-10-17T20:37:24.882Z,91.00
2018-10-17T20:39:53.336Z,91.00
2018-10-17T20:42:21.850Z,91.00
2018-10-17T20:44:56.279Z,91.20
2018-10-17T20:47:30.568Z,91.30
2018-10-17T20:49:59.018Z,91.30
2018-10-17T20:52:27.509Z,91.40
2018-10-17T20:54:56.220Z,91.70
2018-10-17T20:57:25.432Z,91.50
2018-10-17T20:59:53.958Z,91.50
2018-10-17T21:02:22.730Z,91.50
2018-10-17T21:04:52.267Z,91.60
2018-10-17T21:07:26.382Z,91.70
2018-10-17T21:09:54.850Z,91.70
2018-10-17T21:12:26.502Z,91.90
2018-10-17T21:14:55.409Z,91.90
2018-10-17T21:17:24.045Z,92.00
2018-10-17T21:19:59.339Z,92.00
2018-10-17T21:22:28.030Z,92.10
2018-10-17T21:24:56.687Z,92.00
2018-10-17T21:27:25.213Z,92.10
2018-10-17T21:29:53.781Z,91.90
2018-10-17T21:32:22.335Z,92.20
2018-10-17T21:34:56.044Z,91.90
2018-10-17T21:37:24.580Z,92.00
2018-10-17T21:39:56.858Z,92.00
2018-10-17T21:42:25.906Z,92.10
2018-10-17T21:44:55.570Z,92.30
2018-10-17T21:47:25.952Z,92.50
2018-10-17T21:49:55.588Z,92.50
2018-10-17T21:52:24.270Z,92.30
2018-10-17T21:54:52.747Z,92.50
2018-10-17T21:57:21.303Z,92.60
2018-10-17T21:59:53.253Z,92.50
2018-10-17T22:02:24.947Z,92.40
2018-10-17T22:04:53.645Z,92.60
2018-10-17T22:07:22.218Z,92.50
2018-10-17T22:09:54.629Z,92.40
2018-10-17T22:12:23.974Z,92.50
2018-10-17T22:14:52.610Z,92.50
2018-10-17T22:17:41.901Z,92.70
2018-10-17T22:20:10.553Z,93.00
2018-10-17T22:23:17.161Z,92.80
2018-10-17T22:25:58.349Z,92.90
2018-10-17T22:28:27.028Z,92.90
2018-10-17T22:30:55.546Z,92.80
2018-10-17T22:33:24.215Z,92.80
2018-10-17T22:35:53.173Z,92.70
2018-10-17T22:38:21.741Z,93.00
2018-10-17T22:40:55.353Z,93.00
2018-10-17T22:43:24.004Z,92.80
2018-10-17T22:45:52.637Z,92.90
2018-10-17T22:48:34.152Z,92.90
2018-10-17T22:51:02.736Z,92.90
2018-10-17T22:53:41.238Z,92.70
2018-10-17T22:56:10.028Z,93.00
2018-10-17T22:58:42.441Z,93.10
2018-10-17T23:01:39.345Z,93.30
2018-10-17T23:04:26.185Z,93.20
2018-10-17T23:06:55.260Z,93.10
2018-10-17T23:09:24.095Z,93.30
2018-10-17T23:11:52.631Z,93.20
2018-10-17T23:14:27.772Z,93.20
2018-10-17T23:16:56.286Z,93.10
2018-10-17T23:19:25.433Z,93.60
2018-10-17T23:21:54.023Z,93.30
2018-10-17T23:24:22.592Z,93.20
2018-10-17T23:26:51.153Z,93.30
2018-10-17T23:29:20.512Z,93.50
2018-10-17T23:31:49.008Z,93.60
2018-10-17T23:34:33.988Z,93.50
2018-10-17T23:37:02.600Z,93.60
2018-10-17T23:39:41.298Z,93.60
2018-10-17T23:42:09.980Z,93.80
2018-10-17T23:44:39.163Z,93.50
2018-10-17T23:47:08.335Z,93.60
2018-10-17T23:49:38.100Z,93.40
2018-10-17T23:52:06.688Z,93.50
2018-10-17T23:54:35.246Z,93.50
2018-10-17T23:57:03.804Z,93.50
2018-10-17T23:59:32.372Z,93.70
